Terminal Aerodrome Forecast
Issued by NWS Wilmington, OH

Current Version | Previous Version | Graphics & Text | Print | Product List | Glossary On
Versions: 1 2 3 4 5 6 7 8 9 10 11 12 13 14 15 16 17 18 19 20 21 22 23 24
000
FTUS41 KILN 302327
TAFCVG
TAF
KCVG 302327Z 3100/0106 20003KT P6SM SCT040 BKN250
     FM310800 20003KT 4SM BR SCT050 BKN250
     FM311300 23006KT P6SM FEW020 SCT100
     FM311800 24006KT P6SM VCSH BKN040
     FM010100 19003KT P6SM SCT050 BKN250=

USA.gov is the U.S. government's official web portal to all federal, state and local government web resources and services.